Time;durP1;ratioP1;P1;durP2;ratioP2;P2;SDS_P1;SDS_P2;PMS_P1;PMS_P2;Temp;Humidity;BMP_temperature;BMP_pressure;BME280_temperature;BME280_humidity;BME280_pressure;Samples;Min_cycle;Max_cycle;Signal;HPM_P1;HPM_P2
2022/06/21 00:02:17;;;;;;;11.18;3.28;;;;;;;;;;5057539;28;20043;-75
2022/06/21 00:04:44;;;;;;;6.68;3.08;;;;;;;;;;5056477;28;20021;-75
2022/06/21 00:07:12;;;;;;;4.10;2.80;;;;;;;;;;5057515;28;20029;-75
2022/06/21 00:09:38;;;;;;;6.70;3.10;;;;;;;;;;5051713;28;20025;-75
2022/06/21 00:12:05;;;;;;;5.72;2.75;;;;;;;;;;5055427;28;20021;-75
2022/06/21 00:14:31;;;;;;;5.22;2.60;;;;;;;;;;5052684;28;20060;-76
2022/06/21 00:16:57;;;;;;;5.65;2.70;;;;;;;;;;5060014;28;20032;-75
2022/06/21 00:19:24;;;;;;;8.48;3.10;;;;;;;;;;5058309;28;20076;-75
2022/06/21 00:21:51;;;;;;;8.68;3.40;;;;;;;;;;5054385;28;20106;-75
2022/06/21 00:24:17;;;;;;;7.35;3.17;;;;;;;;;;5058013;28;20013;-74
2022/06/21 00:26:44;;;;;;;5.65;2.67;;;;;;;;;;5052499;28;20021;-74
2022/06/21 00:29:12;;;;;;;10.50;3.20;;;;;;;;;;5055707;28;20031;-75
2022/06/21 00:31:41;;;;;;;10.40;3.33;;;;;;;;;;5056266;28;20029;-74
2022/06/21 00:34:11;;;;;;;9.68;3.80;;;;;;;;;;5053228;28;20090;-74
2022/06/21 00:36:38;;;;;;;7.18;3.28;;;;;;;;;;5055283;28;20078;-75
2022/06/21 00:39:05;;;;;;;6.60;3.08;;;;;;;;;;5055905;28;20033;-74
2022/06/21 00:41:51;;;;;;;7.10;3.28;;;;;;;;;;5056269;28;20029;-75
2022/06/21 00:44:40;;;;;;;8.95;3.58;;;;;;;;;;5050463;28;20170;-74
2022/06/21 00:47:13;;;;;;;6.25;3.53;;;;;;;;;;5052413;28;20376;-74
2022/06/21 00:49:47;;;;;;;8.68;3.88;;;;;;;;;;5057589;28;20025;-75
2022/06/21 00:52:16;;;;;;;4.63;2.95;;;;;;;;;;5052046;28;20368;-75
2022/06/21 00:54:57;;;;;;;5.75;3.15;;;;;;;;;;5055527;28;20024;-75
2022/06/21 00:57:27;;;;;;;7.95;3.33;;;;;;;;;;5051724;28;20538;-75
2022/06/21 00:59:54;;;;;;;7.40;3.55;;;;;;;;;;5064077;28;20024;-74
2022/06/21 01:02:38;;;;;;;6.43;3.72;;;;;;;;;;5051796;28;20056;-75
2022/06/21 01:05:04;;;;;;;6.82;3.25;;;;;;;;;;5052769;28;20476;-75
2022/06/21 01:07:31;;;;;;;8.85;3.60;;;;;;;;;;5062045;28;20442;-75
2022/06/21 01:10:12;;;;;;;8.43;3.33;;;;;;;;;;5050472;28;20612;-76
2022/06/21 01:12:49;;;;;;;8.15;3.67;;;;;;;;;;5056884;28;20020;-74
2022/06/21 01:15:18;;;;;;;8.90;4.78;;;;;;;;;;5055751;28;20025;-73
2022/06/21 01:17:45;;;;;;;5.75;3.28;;;;;;;;;;5059666;28;20025;-76
2022/06/21 01:20:15;;;;;;;6.68;3.47;;;;;;;;;;5050955;28;20048;-75
2022/06/21 01:22:54;;;;;;;7.75;4.40;;;;;;;;;;5051407;28;20122;-75
2022/06/21 01:25:26;;;;;;;6.93;3.20;;;;;;;;;;5054386;28;20025;-75
2022/06/21 01:27:55;;;;;;;8.85;3.13;;;;;;;;;;5072858;28;20039;-75
2022/06/21 01:30:22;;;;;;;6.50;2.95;;;;;;;;;;5060428;28;20066;-74
2022/06/21 01:32:48;;;;;;;8.98;3.50;;;;;;;;;;5055877;28;20021;-74
2022/06/21 01:35:17;;;;;;;6.95;3.35;;;;;;;;;;5056540;28;20512;-75
2022/06/21 01:37:43;;;;;;;8.35;3.13;;;;;;;;;;5050415;28;20387;-74
2022/06/21 01:40:39;;;;;;;8.38;3.08;;;;;;;;;;5057538;28;20085;-74
2022/06/21 01:43:07;;;;;;;8.57;3.17;;;;;;;;;;5055000;28;20033;-74
2022/06/21 01:45:39;;;;;;;4.57;3.17;;;;;;;;;;5062456;28;20052;-75
2022/06/21 01:48:25;;;;;;;8.07;3.42;;;;;;;;;;5058283;28;20013;-74
2022/06/21 01:50:54;;;;;;;7.43;3.80;;;;;;;;;;5051116;28;20028;-75
2022/06/21 01:53:22;;;;;;;5.57;3.42;;;;;;;;;;5048393;28;20039;-74
2022/06/21 01:55:52;;;;;;;6.82;3.47;;;;;;;;;;5049681;28;20025;-74
2022/06/21 01:58:20;;;;;;;9.93;3.80;;;;;;;;;;5058819;28;20032;-73
2022/06/21 02:00:55;;;;;;;11.82;3.65;;;;;;;;;;5054754;28;20028;-75
2022/06/21 02:03:25;;;;;;;7.75;3.08;;;;;;;;;;5055959;28;20029;-75
2022/06/21 02:05:52;;;;;;;8.55;3.35;;;;;;;;;;5063463;28;20024;-74
2022/06/21 02:08:20;;;;;;;8.93;3.70;;;;;;;;;;5060407;28;20581;-75
2022/06/21 02:11:08;;;;;;;12.10;3.60;;;;;;;;;;5057042;28;20078;-75
2022/06/21 02:13:39;;;;;;;8.07;4.10;;;;;;;;;;5057950;28;20054;-74
2022/06/21 02:16:08;;;;;;;10.50;3.47;;;;;;;;;;5052415;28;20036;-74
2022/06/21 02:18:37;;;;;;;7.47;3.00;;;;;;;;;;5049179;28;20094;-74
2022/06/21 02:21:12;;;;;;;8.65;3.72;;;;;;;;;;5055949;28;20029;-75
2022/06/21 02:23:40;;;;;;;9.75;3.80;;;;;;;;;;5065316;28;20055;-75
2022/06/21 02:26:06;;;;;;;7.25;3.58;;;;;;;;;;5057355;28;20048;-75
2022/06/21 02:28:32;;;;;;;11.80;3.97;;;;;;;;;;5062257;28;20390;-75
2022/06/21 02:30:59;;;;;;;8.13;3.88;;;;;;;;;;5052643;28;20120;-74
2022/06/21 02:33:31;;;;;;;8.23;3.83;;;;;;;;;;5065300;28;20031;-74
2022/06/21 02:36:04;;;;;;;9.07;3.53;;;;;;;;;;5060219;28;20322;-74
2022/06/21 02:38:44;;;;;;;6.97;3.22;;;;;;;;;;5050281;28;20027;-75
2022/06/21 02:41:29;;;;;;;8.68;4.63;;;;;;;;;;5051195;28;20051;-76
2022/06/21 02:43:57;;;;;;;10.87;3.90;;;;;;;;;;5056188;28;20032;-75
2022/06/21 02:46:28;;;;;;;7.65;3.35;;;;;;;;;;5060214;28;20263;-75
2022/06/21 02:49:06;;;;;;;15.85;4.50;;;;;;;;;;5053665;28;20060;-75
2022/06/21 02:51:36;;;;;;;11.00;4.65;;;;;;;;;;5058947;28;20036;-76
2022/06/21 02:54:08;;;;;;;7.85;4.25;;;;;;;;;;5061743;28;20024;-74
2022/06/21 02:56:37;;;;;;;9.70;3.97;;;;;;;;;;5053536;28;20118;-76
2022/06/21 02:59:03;;;;;;;9.07;4.40;;;;;;;;;;5064231;28;20025;-75
2022/06/21 03:01:35;;;;;;;9.38;5.13;;;;;;;;;;5060438;28;20099;-75
2022/06/21 03:04:01;;;;;;;10.40;5.32;;;;;;;;;;5064129;28;20031;-75
2022/06/21 03:06:29;;;;;;;13.90;5.20;;;;;;;;;;5059337;28;20760;-75
2022/06/21 03:08:57;;;;;;;12.43;4.30;;;;;;;;;;5059195;28;20086;-76
2022/06/21 03:11:27;;;;;;;11.07;4.93;;;;;;;;;;5056456;28;20017;-75
2022/06/21 03:13:54;;;;;;;15.23;5.72;;;;;;;;;;5057342;28;20034;-76
2022/06/21 03:16:21;;;;;;;12.20;5.05;;;;;;;;;;5059201;28;20408;-75
2022/06/21 03:18:50;;;;;;;14.13;4.85;;;;;;;;;;5052481;28;20053;-75
2022/06/21 03:21:17;;;;;;;11.35;6.88;;;;;;;;;;5062103;28;20025;-74
2022/06/21 03:23:44;;;;;;;15.70;6.90;;;;;;;;;;5064209;28;20021;-76
2022/06/21 03:26:11;;;;;;;18.17;7.35;;;;;;;;;;5052432;28;20029;-75
2022/06/21 03:28:39;;;;;;;22.80;7.88;;;;;;;;;;5054665;28;20017;-75
2022/06/21 03:31:08;;;;;;;11.93;6.55;;;;;;;;;;5061685;28;20017;-76
2022/06/21 03:33:35;;;;;;;14.93;6.70;;;;;;;;;;5059740;28;20153;-74
2022/06/21 03:36:02;;;;;;;14.85;6.25;;;;;;;;;;5061596;28;20107;-75
2022/06/21 03:38:29;;;;;;;17.05;6.47;;;;;;;;;;5059985;28;20020;-76
2022/06/21 03:43:41;;;;;;;;;;;;;;;;;;5065658;28;20043;-76
2022/06/21 03:46:09;;;;;;;15.65;6.93;;;;;;;;;;5056775;28;19912;-75
2022/06/21 03:48:40;;;;;;;17.25;7.10;;;;;;;;;;5053259;28;20425;-75
2022/06/21 03:51:09;;;;;;;13.68;6.80;;;;;;;;;;5056972;28;20024;-75
2022/06/21 03:53:44;;;;;;;12.38;6.28;;;;;;;;;;5063379;28;20021;-75
2022/06/21 03:56:16;;;;;;;44.08;8.02;;;;;;;;;;5055802;28;20065;-74
2022/06/21 03:58:50;;;;;;;16.10;6.65;;;;;;;;;;5058610;28;20096;-76
2022/06/21 04:01:25;;;;;;;15.68;6.82;;;;;;;;;;5060754;28;20056;-76
2022/06/21 04:04:06;;;;;;;14.52;6.95;;;;;;;;;;5061718;28;20035;-75
2022/06/21 04:06:41;;;;;;;16.27;6.35;;;;;;;;;;5060116;28;20026;-75
2022/06/21 04:09:07;;;;;;;;;;;;;;;;;;5057076;28;20040;-75
2022/06/21 04:11:43;;;;;;;11.88;5.18;;;;;;;;;;5053093;28;20390;-75
2022/06/21 04:14:19;;;;;;;11.50;6.45;;;;;;;;;;5061026;28;20025;-76
2022/06/21 04:16:49;;;;;;;11.18;5.13;;;;;;;;;;5057725;28;20025;-76
2022/06/21 04:19:20;;;;;;;13.40;5.78;;;;;;;;;;5059993;28;20121;-75
2022/06/21 04:21:51;;;;;;;10.27;5.18;;;;;;;;;;5057745;28;20032;-76
2022/06/21 04:24:30;;;;;;;10.55;4.70;;;;;;;;;;5053310;28;20502;-76
2022/06/21 04:27:09;;;;;;;14.45;5.28;;;;;;;;;;5052883;28;20025;-75
2022/06/21 04:29:54;;;;;;;13.65;4.97;;;;;;;;;;5062947;28;20028;-75
2022/06/21 04:32:30;;;;;;;13.48;5.03;;;;;;;;;;5062755;28;20075;-75
2022/06/21 04:35:00;;;;;;;12.02;5.15;;;;;;;;;;5058952;28;20017;-75
2022/06/21 04:37:34;;;;;;;10.48;5.40;;;;;;;;;;5056509;28;20530;-75
2022/06/21 04:40:03;;;;;;;10.27;5.20;;;;;;;;;;5055262;28;20032;-75
2022/06/21 04:42:29;;;;;;;14.20;5.10;;;;;;;;;;5048959;28;20039;-77
2022/06/21 04:45:07;;;;;;;17.60;5.00;;;;;;;;;;5055519;28;20020;-75
2022/06/21 04:47:43;;;;;;;12.32;5.25;;;;;;;;;;5056193;28;20383;-75
2022/06/21 04:50:35;;;;;;;15.35;4.85;;;;;;;;;;5053899;28;20074;-75
2022/06/21 04:53:22;;;;;;;7.60;4.20;;;;;;;;;;5054350;28;20047;-75
2022/06/21 04:56:04;;;;;;;11.38;4.38;;;;;;;;;;5061259;28;20029;-76
2022/06/21 04:58:30;;;;;;;11.40;4.97;;;;;;;;;;5061055;28;20047;-76
2022/06/21 05:00:57;;;;;;;10.93;4.20;;;;;;;;;;5054132;28;20402;-76
2022/06/21 05:03:29;;;;;;;7.05;4.20;;;;;;;;;;5058056;28;20067;-75
2022/06/21 05:05:55;;;;;;;10.20;5.07;;;;;;;;;;5055802;28;20352;-75
2022/06/21 05:08:22;;;;;;;12.93;5.05;;;;;;;;;;5053342;28;20116;-75
2022/06/21 05:10:50;;;;;;;10.13;4.50;;;;;;;;;;5054535;28;20067;-75
2022/06/21 05:13:16;;;;;;;9.65;5.63;;;;;;;;;;5058073;28;20083;-75
2022/06/21 05:15:43;;;;;;;9.50;4.25;;;;;;;;;;5053046;28;20035;-75
2022/06/21 05:18:21;;;;;;;9.48;4.20;;;;;;;;;;5058711;28;20086;-74
2022/06/21 05:20:50;;;;;;;7.93;4.10;;;;;;;;;;5063298;28;20052;-75
2022/06/21 05:23:18;;;;;;;14.68;4.78;;;;;;;;;;5055862;28;20036;-75
2022/06/21 05:25:44;;;;;;;11.55;4.82;;;;;;;;;;5055801;28;20025;-75
2022/06/21 05:28:23;;;;;;;7.53;4.22;;;;;;;;;;5053142;28;20032;-75
2022/06/21 05:30:51;;;;;;;15.68;4.80;;;;;;;;;;5049429;28;20403;-76
2022/06/21 05:33:22;;;;;;;5.63;4.45;;;;;;;;;;5054334;28;20055;-75
2022/06/21 05:35:49;;;;;;;6.68;4.13;;;;;;;;;;5053834;28;20025;-76
2022/06/21 05:38:18;;;;;;;8.65;3.80;;;;;;;;;;5057414;28;20032;-75
2022/06/21 05:40:51;;;;;;;7.10;3.92;;;;;;;;;;5061588;28;20493;-75
2022/06/21 05:43:18;;;;;;;7.50;4.93;;;;;;;;;;5058718;28;20081;-76
2022/06/21 05:45:48;;;;;;;6.38;4.00;;;;;;;;;;5078056;28;20044;-76
2022/06/21 05:48:20;;;;;;;6.05;4.07;;;;;;;;;;5052058;28;20031;-75
2022/06/21 05:50:46;;;;;;;9.82;3.60;;;;;;;;;;5053836;28;20020;-74
2022/06/21 05:53:17;;;;;;;5.85;3.80;;;;;;;;;;5072735;28;20037;-76
2022/06/21 05:55:45;;;;;;;7.25;4.10;;;;;;;;;;5052841;28;20025;-75
2022/06/21 05:58:17;;;;;;;6.72;4.47;;;;;;;;;;5052322;28;20048;-75
2022/06/21 06:00:52;;;;;;;5.30;3.40;;;;;;;;;;5051712;28;20029;-75
2022/06/21 06:03:41;;;;;;;5.75;3.65;;;;;;;;;;5061527;28;20079;-75
2022/06/21 06:06:13;;;;;;;7.75;3.85;;;;;;;;;;5048422;28;20063;-75
2022/06/21 06:08:41;;;;;;;6.80;4.32;;;;;;;;;;5060150;28;20032;-75
2022/06/21 06:11:13;;;;;;;6.00;4.60;;;;;;;;;;5055595;28;20028;-75
2022/06/21 06:13:40;;;;;;;8.27;4.68;;;;;;;;;;5061388;28;20029;-76
2022/06/21 06:16:11;;;;;;;5.32;3.50;;;;;;;;;;5062269;28;20486;-76
2022/06/21 06:18:46;;;;;;;8.85;4.20;;;;;;;;;;5049427;28;20513;-76
2022/06/21 06:21:12;;;;;;;4.07;3.42;;;;;;;;;;5056737;28;20032;-74
2022/06/21 06:23:38;;;;;;;10.15;4.35;;;;;;;;;;5054705;28;20053;-75
2022/06/21 06:26:06;;;;;;;4.68;3.47;;;;;;;;;;5056508;28;20016;-74
2022/06/21 06:28:35;;;;;;;5.78;3.60;;;;;;;;;;5060216;28;20016;-76
2022/06/21 06:31:09;;;;;;;6.00;3.78;;;;;;;;;;5062369;28;20100;-75
2022/06/21 06:33:39;;;;;;;5.53;3.55;;;;;;;;;;5060458;28;20025;-74
2022/06/21 06:36:08;;;;;;;4.30;2.97;;;;;;;;;;5061491;28;20601;-74
2022/06/21 06:38:35;;;;;;;5.57;3.20;;;;;;;;;;5060708;28;20112;-75
2022/06/21 06:41:10;;;;;;;3.67;3.25;;;;;;;;;;5060991;28;20028;-76
2022/06/21 06:43:36;;;;;;;;;;;;;;;;;;5064612;28;20060;-75
2022/06/21 06:46:04;;;;;;;5.20;3.22;;;;;;;;;;5059998;28;19963;-75
2022/06/21 06:48:32;;;;;;;8.98;2.97;;;;;;;;;;5061358;28;20020;-76
2022/06/21 06:51:18;;;;;;;7.28;3.28;;;;;;;;;;5055539;28;20021;-75
2022/06/21 06:53:46;;;;;;;4.32;2.80;;;;;;;;;;5053557;28;20033;-75
2022/06/21 06:56:16;;;;;;;4.82;3.55;;;;;;;;;;5058007;28;20025;-77
2022/06/21 06:58:48;;;;;;;4.15;3.20;;;;;;;;;;5051247;28;20033;-75
2022/06/21 07:01:15;;;;;;;5.97;3.35;;;;;;;;;;5050248;28;20120;-76
2022/06/21 07:03:48;;;;;;;4.25;3.13;;;;;;;;;;5061929;28;20020;-76
2022/06/21 07:06:23;;;;;;;6.63;3.33;;;;;;;;;;5055106;28;20036;-76
2022/06/21 07:08:49;;;;;;;;;;;;;;;;;;5053206;28;20079;-75
2022/06/21 07:11:26;;;;;;;7.15;3.70;;;;;;;;;;5060059;28;19912;-75
2022/06/21 07:13:53;;;;;;;10.50;3.60;;;;;;;;;;5056987;28;20054;-75
2022/06/21 07:16:21;;;;;;;7.72;3.65;;;;;;;;;;5059918;28;20483;-76
2022/06/21 07:18:49;;;;;;;7.10;3.95;;;;;;;;;;5063093;28;20067;-76
2022/06/21 07:21:16;;;;;;;7.38;4.13;;;;;;;;;;5058784;28;20553;-76
2022/06/21 07:23:42;;;;;;;8.10;4.82;;;;;;;;;;5057014;28;20403;-76
2022/06/21 07:26:09;;;;;;;8.63;4.10;;;;;;;;;;5063984;28;20720;-76
2022/06/21 07:28:38;;;;;;;10.02;4.93;;;;;;;;;;5056285;28;20025;-76
2022/06/21 07:31:13;;;;;;;9.68;4.60;;;;;;;;;;5052477;28;20104;-75
2022/06/21 07:33:39;;;;;;;;;;;;;;;;;;5057302;28;20604;-76
2022/06/21 07:36:32;;;;;;;5.85;4.35;;;;;;;;;;5058520;28;20118;-75
2022/06/21 07:39:09;;;;;;;6.93;4.07;;;;;;;;;;5054144;28;20415;-75
2022/06/21 07:41:44;;;;;;;7.63;4.60;;;;;;;;;;5054142;28;20029;-76
2022/06/21 07:44:32;;;;;;;9.30;4.55;;;;;;;;;;5051051;28;20029;-76
2022/06/21 07:47:01;;;;;;;6.72;4.80;;;;;;;;;;5053174;28;20033;-76
2022/06/21 07:49:53;;;;;;;7.85;4.95;;;;;;;;;;5063845;28;20378;-76
2022/06/21 07:52:19;;;;;;;7.88;5.10;;;;;;;;;;5051453;28;20052;-76
2022/06/21 07:54:47;;;;;;;8.35;5.15;;;;;;;;;;5061858;28;20033;-76
2022/06/21 07:57:22;;;;;;;8.45;5.38;;;;;;;;;;5060493;28;20047;-74
2022/06/21 07:59:52;;;;;;;8.02;5.22;;;;;;;;;;5053844;28;20024;-75
2022/06/21 08:07:54;;;;;;;8.57;5.90;;;;;;;;;;5061185;28;20297;-75
2022/06/21 08:10:28;;;;;;;7.88;5.68;;;;;;;;;;5059783;28;20024;-74
2022/06/21 08:12:55;;;;;;;8.85;5.88;;;;;;;;;;5055000;28;20048;-75
2022/06/21 08:15:22;;;;;;;7.65;5.78;;;;;;;;;;5056373;28;20546;-76
2022/06/21 08:17:48;;;;;;;9.40;6.47;;;;;;;;;;5056283;28;20490;-75
2022/06/21 08:20:20;;;;;;;7.30;6.22;;;;;;;;;;5061951;28;20048;-76
2022/06/21 08:22:49;;;;;;;8.68;5.28;;;;;;;;;;5052725;28;20207;-76
2022/06/21 08:25:18;;;;;;;6.80;5.10;;;;;;;;;;5054232;28;20434;-76
2022/06/21 08:27:47;;;;;;;6.53;5.43;;;;;;;;;;5056438;28;20108;-77
2022/06/21 08:30:22;;;;;;;9.20;6.00;;;;;;;;;;5057812;28;20060;-76
2022/06/21 08:32:52;;;;;;;8.45;6.22;;;;;;;;;;5058628;28;20074;-76
2022/06/21 08:35:29;;;;;;;8.02;6.78;;;;;;;;;;5064551;28;20043;-75
2022/06/21 08:38:14;;;;;;;7.20;6.28;;;;;;;;;;5060515;28;20025;-76
2022/06/21 08:40:59;;;;;;;6.43;5.37;;;;;;;;;;5058657;28;20029;-76
2022/06/21 08:43:30;;;;;;;7.93;5.10;;;;;;;;;;5064113;28;20024;-76
2022/06/21 08:46:00;;;;;;;5.95;4.05;;;;;;;;;;5052566;28;20013;-74
2022/06/21 08:48:39;;;;;;;5.07;3.53;;;;;;;;;;5056989;28;20040;-76
2022/06/21 08:51:11;;;;;;;5.28;4.15;;;;;;;;;;5051048;28;20036;-75
2022/06/21 08:53:50;;;;;;;4.70;3.55;;;;;;;;;;5049740;28;20033;-75
2022/06/21 08:56:31;;;;;;;7.25;4.63;;;;;;;;;;5052187;28;20486;-75
2022/06/21 08:59:17;;;;;;;4.20;3.60;;;;;;;;;;5055550;28;20017;-75
2022/06/21 09:01:43;;;;;;;4.93;3.92;;;;;;;;;;5056708;28;20021;-76
2022/06/21 09:04:28;;;;;;;4.47;3.20;;;;;;;;;;5053437;28;20303;-75
2022/06/21 09:07:07;;;;;;;3.58;3.10;;;;;;;;;;5052011;28;20029;-77
2022/06/21 09:09:36;;;;;;;5.93;3.75;;;;;;;;;;5049945;28;20360;-74
2022/06/21 09:12:08;;;;;;;3.17;2.72;;;;;;;;;;5057761;28;20059;-75
2022/06/21 09:14:42;;;;;;;4.20;2.65;;;;;;;;;;5055049;28;20059;-75
2022/06/21 09:17:11;;;;;;;6.77;4.77;;;;;;;;;;5051846;28;20522;-75
2022/06/21 09:19:40;;;;;;;5.20;3.78;;;;;;;;;;5058078;28;20040;-76
2022/06/21 09:22:06;;;;;;;4.45;3.40;;;;;;;;;;5052356;28;20105;-76
2022/06/21 09:24:40;;;;;;;4.32;3.63;;;;;;;;;;5053273;28;20483;-75
2022/06/21 09:27:10;;;;;;;7.43;5.47;;;;;;;;;;5052147;28;20482;-76
2022/06/21 09:29:39;;;;;;;10.57;6.90;;;;;;;;;;5058376;28;20021;-74
2022/06/21 09:32:21;;;;;;;8.52;5.82;;;;;;;;;;5052081;28;20115;-75
2022/06/21 09:34:50;;;;;;;8.05;5.63;;;;;;;;;;5048285;28;20036;-76
2022/06/21 09:37:23;;;;;;;5.97;4.95;;;;;;;;;;5053540;28;20035;-76
2022/06/21 09:40:03;;;;;;;6.70;4.68;;;;;;;;;;5061625;28;20020;-76
2022/06/21 09:42:31;;;;;;;7.55;4.85;;;;;;;;;;5049138;28;20029;-76
2022/06/21 09:45:03;;;;;;;7.35;4.78;;;;;;;;;;5054690;28;20024;-76
2022/06/21 09:47:49;;;;;;;6.20;4.45;;;;;;;;;;5053570;28;20028;-77
2022/06/21 09:50:21;;;;;;;8.43;5.25;;;;;;;;;;5049677;28;20045;-76
2022/06/21 09:52:58;;;;;;;7.88;5.35;;;;;;;;;;5061154;28;20049;-76
2022/06/21 09:55:35;;;;;;;7.45;5.57;;;;;;;;;;5056134;28;20090;-75
2022/06/21 09:58:10;;;;;;;6.35;5.07;;;;;;;;;;5063925;28;20085;-76
2022/06/21 10:00:37;;;;;;;;;;;;;;;;;;5066480;28;20028;-76
2022/06/21 10:03:25;;;;;;;8.43;5.93;;;;;;;;;;5063511;28;19935;-76
2022/06/21 10:05:51;;;;;;;6.53;4.78;;;;;;;;;;5063956;28;20021;-76
2022/06/21 10:08:23;;;;;;;6.68;4.88;;;;;;;;;;5061922;28;20478;-76
2022/06/21 10:11:08;;;;;;;5.63;4.07;;;;;;;;;;5059158;28;20417;-76
2022/06/21 10:13:34;;;;;;;5.15;4.07;;;;;;;;;;5067351;28;20729;-76
2022/06/21 10:16:21;;;;;;;6.72;4.13;;;;;;;;;;5060112;28;20409;-75
2022/06/21 10:18:53;;;;;;;7.20;4.22;;;;;;;;;;5061196;28;20064;-75
2022/06/21 10:21:35;;;;;;;5.15;4.07;;;;;;;;;;5056126;28;20166;-75
2022/06/21 10:24:25;;;;;;;3.80;3.25;;;;;;;;;;5053127;28;20066;-75
2022/06/21 10:27:15;;;;;;;4.38;3.38;;;;;;;;;;5052939;28;20055;-75
2022/06/21 10:29:56;;;;;;;5.72;3.80;;;;;;;;;;5060803;28;20104;-75
2022/06/21 10:32:41;;;;;;;5.20;4.00;;;;;;;;;;5061245;28;20104;-75
2022/06/21 10:35:16;;;;;;;6.13;4.07;;;;;;;;;;5056436;28;20033;-76
2022/06/21 10:38:02;;;;;;;4.55;4.05;;;;;;;;;;5060409;28;20033;-75
2022/06/21 10:40:47;;;;;;;5.68;4.63;;;;;;;;;;5057113;28;20466;-75
2022/06/21 10:43:15;;;;;;;4.25;3.53;;;;;;;;;;5056407;28;20118;-75
2022/06/21 10:45:49;;;;;;;7.95;4.05;;;;;;;;;;5059157;28;20188;-76
2022/06/21 10:48:21;;;;;;;5.20;4.28;;;;;;;;;;5061015;28;20478;-75
2022/06/21 10:51:06;;;;;;;5.25;4.47;;;;;;;;;;5053415;28;20032;-75
2022/06/21 10:53:37;;;;;;;5.45;3.45;;;;;;;;;;5055391;28;20095;-75
2022/06/21 10:59:04;;;;;;;4.38;3.40;;;;;;;;;;5053670;28;20059;-75
2022/06/21 11:01:40;;;;;;;4.05;3.22;;;;;;;;;;5056528;28;20060;-75
2022/06/21 11:04:13;;;;;;;3.88;3.35;;;;;;;;;;5050892;28;20029;-77
2022/06/21 11:06:44;;;;;;;4.13;3.47;;;;;;;;;;5065706;28;20095;-75
2022/06/21 11:09:20;;;;;;;3.67;3.08;;;;;;;;;;5053354;28;20079;-76
2022/06/21 11:12:52;;;;;;;3.80;3.35;;;;;;;;;;5052756;28;20020;-76
2022/06/21 11:14:58;;;;;;;4.55;3.10;;;;;;;;;;5058049;28;20039;-75
2022/06/21 11:17:24;;;;;;;;;;;;;;;;;;5062476;28;20017;-75
2022/06/21 11:19:50;;;;;;;3.92;3.00;;;;;;;;;;5060504;28;20464;-76
2022/06/21 11:22:22;;;;;;;5.38;2.97;;;;;;;;;;5061088;28;20037;-74
2022/06/21 11:24:59;;;;;;;3.67;2.72;;;;;;;;;;5060688;28;20059;-75
2022/06/21 11:27:32;;;;;;;3.53;2.67;;;;;;;;;;5054745;28;20025;-75
2022/06/21 11:30:14;;;;;;;3.13;2.63;;;;;;;;;;5049714;28;20089;-74
2022/06/21 11:33:07;;;;;;;3.20;2.63;;;;;;;;;;5056061;28;20033;-75
2022/06/21 11:35:42;;;;;;;4.20;3.38;;;;;;;;;;5048993;28;20037;-75
2022/06/21 11:38:08;;;;;;;3.13;2.65;;;;;;;;;;5061568;28;20123;-74
2022/06/21 11:40:43;;;;;;;4.00;2.72;;;;;;;;;;5061776;28;20021;-74
2022/06/21 11:43:18;;;;;;;4.57;3.10;;;;;;;;;;5050625;28;20078;-75
2022/06/21 11:45:52;;;;;;;3.10;2.78;;;;;;;;;;5052896;28;20025;-75
2022/06/21 11:48:21;;;;;;;;;;;;;;;;;;5054937;28;20957;-74
2022/06/21 11:50:47;;;;;;;3.38;2.80;;;;;;;;;;5049199;28;19904;-75
2022/06/21 11:53:25;;;;;;;2.92;2.53;;;;;;;;;;5048860;28;20060;-74
2022/06/21 11:56:21;;;;;;;4.47;2.67;;;;;;;;;;5056236;28;20035;-75
2022/06/21 11:58:56;;;;;;;4.55;2.90;;;;;;;;;;5052734;28;20364;-75
2022/06/21 12:01:37;;;;;;;2.92;2.35;;;;;;;;;;5055444;28;20110;-75
2022/06/21 12:04:03;;;;;;;3.38;2.38;;;;;;;;;;5061396;28;20035;-74
2022/06/21 12:06:29;;;;;;;2.30;2.10;;;;;;;;;;5060293;28;20411;-75
2022/06/21 12:08:55;;;;;;;4.47;2.60;;;;;;;;;;5058244;28;20104;-75
2022/06/21 12:11:34;;;;;;;2.63;2.25;;;;;;;;;;5053040;28;20023;-76
2022/06/21 12:14:14;;;;;;;2.70;2.30;;;;;;;;;;5054538;28;20108;-75
2022/06/21 12:16:49;;;;;;;3.10;2.38;;;;;;;;;;5062987;28;20066;-75
2022/06/21 12:19:29;;;;;;;3.00;2.22;;;;;;;;;;5056222;28;20059;-77
2022/06/21 12:22:18;;;;;;;2.78;2.30;;;;;;;;;;5056466;28;20056;-74
2022/06/21 12:24:46;;;;;;;2.85;2.38;;;;;;;;;;5045868;28;20139;-75
2022/06/21 12:27:12;;;;;;;3.45;2.30;;;;;;;;;;5051939;28;20498;-75
2022/06/21 12:29:38;;;;;;;2.90;2.28;;;;;;;;;;5053097;28;20033;-74
2022/06/21 12:32:05;;;;;;;3.13;2.55;;;;;;;;;;5051078;28;20021;-75
2022/06/21 12:34:42;;;;;;;2.88;2.40;;;;;;;;;;5050671;28;20036;-76
2022/06/21 12:37:14;;;;;;;3.30;2.60;;;;;;;;;;5061074;28;20498;-74
2022/06/21 12:39:45;;;;;;;2.85;2.42;;;;;;;;;;5052696;28;20028;-76
2022/06/21 12:42:32;;;;;;;3.00;2.47;;;;;;;;;;5056188;28;20394;-74
2022/06/21 12:45:05;;;;;;;4.22;2.60;;;;;;;;;;5044966;28;20327;-75
2022/06/21 12:47:53;;;;;;;3.30;2.65;;;;;;;;;;5060336;28;20021;-69
2022/06/21 12:50:22;;;;;;;3.85;2.10;;;;;;;;;;5055631;28;20032;-75
2022/06/21 12:53:04;;;;;;;2.75;2.55;;;;;;;;;;5058822;28;20020;-74
2022/06/21 12:55:33;;;;;;;3.25;2.47;;;;;;;;;;5051395;28;20471;-74
2022/06/21 12:57:59;;;;;;;3.42;2.80;;;;;;;;;;5056008;28;20028;-75
2022/06/21 13:00:25;;;;;;;3.20;2.25;;;;;;;;;;5059398;28;20021;-74
2022/06/21 13:03:10;;;;;;;3.60;2.90;;;;;;;;;;5058418;28;20448;-75
2022/06/21 13:05:54;;;;;;;2.85;2.47;;;;;;;;;;5048724;28;20024;-74
2022/06/21 13:08:27;;;;;;;2.88;2.58;;;;;;;;;;5055281;28;20440;-75
2022/06/21 13:10:53;;;;;;;3.28;2.60;;;;;;;;;;5050563;28;20039;-77
2022/06/21 13:13:40;;;;;;;4.47;2.60;;;;;;;;;;5057955;28;20335;-74
2022/06/21 13:16:15;;;;;;;4.82;2.60;;;;;;;;;;5060227;28;20382;-76
2022/06/21 13:18:48;;;;;;;3.35;2.20;;;;;;;;;;5056472;28;20341;-76
2022/06/21 13:21:15;;;;;;;3.17;2.60;;;;;;;;;;5055936;28;20033;-75
2022/06/21 13:23:53;;;;;;;3.17;2.60;;;;;;;;;;5050387;28;20040;-76
2022/06/21 13:26:38;;;;;;;4.30;2.83;;;;;;;;;;5064102;28;20016;-76
2022/06/21 13:29:23;;;;;;;4.35;2.75;;;;;;;;;;5053607;28;20028;-76
2022/06/21 13:31:53;;;;;;;2.55;2.33;;;;;;;;;;5058259;28;20053;-73
2022/06/21 13:34:19;;;;;;;3.08;2.50;;;;;;;;;;5051203;28;20036;-73
2022/06/21 13:36:47;;;;;;;2.40;2.20;;;;;;;;;;5051525;28;20021;-74
2022/06/21 13:39:16;;;;;;;3.38;2.40;;;;;;;;;;5049229;28;20104;-75
2022/06/21 13:45:02;;;;;;;2.92;2.30;;;;;;;;;;5057102;28;20449;-73
2022/06/21 13:47:33;;;;;;;3.38;2.55;;;;;;;;;;5047575;28;20059;-75
2022/06/21 13:50:14;;;;;;;3.90;2.60;;;;;;;;;;5048321;28;20110;-72
2022/06/21 13:52:48;;;;;;;4.70;2.67;;;;;;;;;;5055590;28;20032;-75
2022/06/21 13:55:15;;;;;;;;;;;;;;;;;;5055803;28;20056;-75
2022/06/21 13:58:02;;;;;;;2.67;2.13;;;;;;;;;;5049093;28;19916;-73
2022/06/21 14:00:33;;;;;;;2.83;2.63;;;;;;;;;;5055003;28;20538;-75
2022/06/21 14:03:18;;;;;;;3.47;2.50;;;;;;;;;;5055424;28;20403;-76
2022/06/21 14:06:00;;;;;;;2.67;2.35;;;;;;;;;;5056251;28;20108;-74
2022/06/21 14:08:34;;;;;;;4.63;2.95;;;;;;;;;;5053276;28;20029;-76
2022/06/21 14:11:05;;;;;;;3.60;2.55;;;;;;;;;;5053157;28;20028;-76
2022/06/21 14:13:46;;;;;;;3.00;2.70;;;;;;;;;;5048554;28;20025;-74
2022/06/21 14:16:18;;;;;;;2.85;2.40;;;;;;;;;;5062698;28;20033;-74
2022/06/21 14:18:52;;;;;;;2.70;2.20;;;;;;;;;;5053303;28;20047;-74
2022/06/21 14:21:34;;;;;;;8.27;3.42;;;;;;;;;;5050588;28;20105;-75
2022/06/21 14:24:06;;;;;;;4.32;2.90;;;;;;;;;;5052416;28;20037;-74
2022/06/21 14:26:36;;;;;;;4.25;2.70;;;;;;;;;;5045976;28;20364;-76
2022/06/21 14:29:02;;;;;;;6.25;3.00;;;;;;;;;;5050427;28;20032;-80
2022/06/21 14:31:33;;;;;;;4.95;3.15;;;;;;;;;;5056045;28;20103;-75
2022/06/21 14:34:09;;;;;;;5.68;3.60;;;;;;;;;;5052441;28;20151;-75
2022/06/21 14:36:46;;;;;;;5.05;3.10;;;;;;;;;;5054604;28;20033;-76
2022/06/21 14:39:25;;;;;;;5.22;4.25;;;;;;;;;;5056851;28;20025;-73
2022/06/21 14:41:52;;;;;;;3.30;2.95;;;;;;;;;;5058439;28;20051;-75
2022/06/21 14:44:21;;;;;;;6.63;3.90;;;;;;;;;;5062662;28;20025;-75
2022/06/21 14:46:53;;;;;;;4.93;3.10;;;;;;;;;;5063005;28;20025;-76
2022/06/21 14:49:20;;;;;;;3.65;3.05;;;;;;;;;;5060411;28;20025;-75
2022/06/21 14:51:52;;;;;;;3.88;3.00;;;;;;;;;;5060031;28;20041;-77
2022/06/21 14:54:27;;;;;;;4.13;3.17;;;;;;;;;;5061298;28;20754;-75
2022/06/21 14:56:54;;;;;;;3.90;3.13;;;;;;;;;;5057597;28;20040;-76
2022/06/21 14:59:43;;;;;;;4.25;3.25;;;;;;;;;;5058195;28;20591;-75
2022/06/21 15:02:25;;;;;;;3.83;2.88;;;;;;;;;;5060388;28;20125;-74
2022/06/21 15:05:03;;;;;;;5.05;3.50;;;;;;;;;;5063925;28;20486;-74
2022/06/21 15:07:55;;;;;;;5.10;3.40;;;;;;;;;;5059571;28;20059;-76
2022/06/21 15:10:30;;;;;;;5.68;3.17;;;;;;;;;;5055501;28;20064;-76
2022/06/21 15:12:59;;;;;;;8.82;3.28;;;;;;;;;;5064701;28;20031;-77
2022/06/21 15:15:27;;;;;;;6.18;2.90;;;;;;;;;;5060835;28;20040;-75
2022/06/21 15:18:03;;;;;;;5.22;2.97;;;;;;;;;;5062866;28;20063;-76
2022/06/21 15:20:35;;;;;;;4.80;3.17;;;;;;;;;;5060941;28;20037;-75
2022/06/21 15:23:16;;;;;;;6.05;3.40;;;;;;;;;;5064124;28;20052;-76
2022/06/21 15:25:53;;;;;;;4.32;2.92;;;;;;;;;;5062462;28;20032;-76
2022/06/21 15:28:26;;;;;;;6.35;3.35;;;;;;;;;;5063164;28;20024;-75
2022/06/21 15:30:52;;;;;;;5.78;3.63;;;;;;;;;;5061115;28;20043;-75
2022/06/21 15:33:24;;;;;;;10.30;3.90;;;;;;;;;;5058486;28;20836;-75